sensor_id;sensor_type;location;lat;lon;timestamp;temperature;humidity
24686;DHT22;12804;51.176;4.452;2024-03-06T00:02:05;9.10;99.90
24686;DHT22;12804;51.176;4.452;2024-03-06T00:04:31;9.20;99.90
24686;DHT22;12804;51.176;4.452;2024-03-06T00:06:57;9.10;99.90
24686;DHT22;12804;51.176;4.452;2024-03-06T00:09:23;9.10;99.90
24686;DHT22;12804;51.176;4.452;2024-03-06T00:11:52;9.10;99.90
24686;DHT22;12804;51.176;4.452;2024-03-06T00:14:19;9.10;99.90
24686;DHT22;12804;51.176;4.452;2024-03-06T00:16:45;9.20;99.90
24686;DHT22;12804;51.176;4.452;2024-03-06T00:19:11;9.30;99.90
24686;DHT22;12804;51.176;4.452;2024-03-06T00:21:37;9.20;99.90
24686;DHT22;12804;51.176;4.452;2024-03-06T00:24:03;9.10;99.90
24686;DHT22;12804;51.176;4.452;2024-03-06T00:26:32;9.00;99.90
24686;DHT22;12804;51.176;4.452;2024-03-06T00:28:57;8.90;99.90
24686;DHT22;12804;51.176;4.452;2024-03-06T00:31:23;8.80;99.90
24686;DHT22;12804;51.176;4.452;2024-03-06T00:33:49;8.80;99.90
24686;DHT22;12804;51.176;4.452;2024-03-06T00:36:15;8.90;99.90
24686;DHT22;12804;51.176;4.452;2024-03-06T00:38:40;8.80;99.90
24686;DHT22;12804;51.176;4.452;2024-03-06T00:41:06;8.70;99.90
24686;DHT22;12804;51.176;4.452;2024-03-06T00:43:32;8.60;99.90
24686;DHT22;12804;51.176;4.452;2024-03-06T00:45:58;8.50;99.90
24686;DHT22;12804;51.176;4.452;2024-03-06T00:48:28;8.40;99.90
24686;DHT22;12804;51.176;4.452;2024-03-06T00:50:54;8.50;99.90
24686;DHT22;12804;51.176;4.452;2024-03-06T00:53:20;8.60;99.90
24686;DHT22;12804;51.176;4.452;2024-03-06T00:55:46;8.60;99.90
24686;DHT22;12804;51.176;4.452;2024-03-06T00:58:12;8.70;99.90
24686;DHT22;12804;51.176;4.452;2024-03-06T01:00:38;8.60;99.90
24686;DHT22;12804;51.176;4.452;2024-03-06T01:03:04;8.40;99.90
24686;DHT22;12804;51.176;4.452;2024-03-06T01:05:31;8.20;99.90
24686;DHT22;12804;51.176;4.452;2024-03-06T01:07:58;8.20;99.90
24686;DHT22;12804;51.176;4.452;2024-03-06T01:10:24;8.10;99.90
24686;DHT22;12804;51.176;4.452;2024-03-06T01:12:50;8.10;99.90
24686;DHT22;12804;51.176;4.452;2024-03-06T01:15:16;8.00;99.90
24686;DHT22;12804;51.176;4.452;2024-03-06T01:17:45;8.00;99.90
24686;DHT22;12804;51.176;4.452;2024-03-06T01:20:12;8.10;99.90
24686;DHT22;12804;51.176;4.452;2024-03-06T01:22:38;8.10;99.90
24686;DHT22;12804;51.176;4.452;2024-03-06T01:25:04;8.20;99.90
24686;DHT22;12804;51.176;4.452;2024-03-06T01:27:30;8.30;99.90
24686;DHT22;12804;51.176;4.452;2024-03-06T01:29:56;8.10;99.90
24686;DHT22;12804;51.176;4.452;2024-03-06T01:32:21;8.10;99.90
24686;DHT22;12804;51.176;4.452;2024-03-06T01:34:47;8.10;99.90
24686;DHT22;12804;51.176;4.452;2024-03-06T01:37:14;8.10;99.90
24686;DHT22;12804;51.176;4.452;2024-03-06T01:39:39;7.80;99.90
24686;DHT22;12804;51.176;4.452;2024-03-06T01:42:05;7.70;99.90
24686;DHT22;12804;51.176;4.452;2024-03-06T01:44:31;7.50;99.90
24686;DHT22;12804;51.176;4.452;2024-03-06T01:46:57;7.30;99.90
24686;DHT22;12804;51.176;4.452;2024-03-06T01:49:23;7.30;99.90
24686;DHT22;12804;51.176;4.452;2024-03-06T01:51:51;7.20;99.90
24686;DHT22;12804;51.176;4.452;2024-03-06T01:54:18;7.10;99.90
24686;DHT22;12804;51.176;4.452;2024-03-06T01:56:48;7.10;99.90
24686;DHT22;12804;51.176;4.452;2024-03-06T01:59:19;7.20;99.90
24686;DHT22;12804;51.176;4.452;2024-03-06T02:01:46;7.30;99.90
24686;DHT22;12804;51.176;4.452;2024-03-06T02:04:12;7.30;99.90
24686;DHT22;12804;51.176;4.452;2024-03-06T02:06:39;7.30;99.90
24686;DHT22;12804;51.176;4.452;2024-03-06T02:09:05;7.40;99.90
24686;DHT22;12804;51.176;4.452;2024-03-06T02:11:33;7.40;99.90
24686;DHT22;12804;51.176;4.452;2024-03-06T02:13:59;7.40;99.90
24686;DHT22;12804;51.176;4.452;2024-03-06T02:16:24;7.40;99.90
24686;DHT22;12804;51.176;4.452;2024-03-06T02:18:52;7.40;99.90
24686;DHT22;12804;51.176;4.452;2024-03-06T02:21:20;7.30;99.90
24686;DHT22;12804;51.176;4.452;2024-03-06T02:23:46;7.30;99.90
24686;DHT22;12804;51.176;4.452;2024-03-06T02:26:12;7.30;99.90
24686;DHT22;12804;51.176;4.452;2024-03-06T02:28:38;7.30;99.90
24686;DHT22;12804;51.176;4.452;2024-03-06T02:31:03;7.30;99.90
24686;DHT22;12804;51.176;4.452;2024-03-06T02:33:32;7.30;99.90
24686;DHT22;12804;51.176;4.452;2024-03-06T02:35:59;7.20;99.90
24686;DHT22;12804;51.176;4.452;2024-03-06T02:38:25;7.20;99.90
24686;DHT22;12804;51.176;4.452;2024-03-06T02:40:51;7.20;99.90
24686;DHT22;12804;51.176;4.452;2024-03-06T02:43:17;7.20;99.90
24686;DHT22;12804;51.176;4.452;2024-03-06T02:45:42;7.10;99.90
24686;DHT22;12804;51.176;4.452;2024-03-06T02:48:08;7.10;99.90
24686;DHT22;12804;51.176;4.452;2024-03-06T02:50:34;7.10;99.90
24686;DHT22;12804;51.176;4.452;2024-03-06T02:53:00;7.10;99.90
24686;DHT22;12804;51.176;4.452;2024-03-06T02:55:26;7.00;99.90
24686;DHT22;12804;51.176;4.452;2024-03-06T02:57:52;6.90;99.90
24686;DHT22;12804;51.176;4.452;2024-03-06T03:00:17;6.90;99.90
24686;DHT22;12804;51.176;4.452;2024-03-06T03:02:44;6.90;99.90
24686;DHT22;12804;51.176;4.452;2024-03-06T03:05:10;6.90;99.90
24686;DHT22;12804;51.176;4.452;2024-03-06T03:07:36;6.80;99.90
24686;DHT22;12804;51.176;4.452;2024-03-06T03:10:02;6.80;99.90
24686;DHT22;12804;51.176;4.452;2024-03-06T03:12:31;6.70;99.90
24686;DHT22;12804;51.176;4.452;2024-03-06T03:14:57;6.60;99.90
24686;DHT22;12804;51.176;4.452;2024-03-06T03:17:23;6.60;99.90
24686;DHT22;12804;51.176;4.452;2024-03-06T03:19:49;6.60;99.90
24686;DHT22;12804;51.176;4.452;2024-03-06T03:22:14;6.70;99.90
24686;DHT22;12804;51.176;4.452;2024-03-06T03:24:43;6.70;99.90
24686;DHT22;12804;51.176;4.452;2024-03-06T03:27:12;6.60;99.90
24686;DHT22;12804;51.176;4.452;2024-03-06T03:29:37;6.60;99.90
24686;DHT22;12804;51.176;4.452;2024-03-06T03:32:03;6.60;99.90
24686;DHT22;12804;51.176;4.452;2024-03-06T03:34:30;6.60;99.90
24686;DHT22;12804;51.176;4.452;2024-03-06T03:36:56;6.50;99.90
24686;DHT22;12804;51.176;4.452;2024-03-06T03:39:22;6.40;99.90
24686;DHT22;12804;51.176;4.452;2024-03-06T03:41:50;6.40;99.90
24686;DHT22;12804;51.176;4.452;2024-03-06T03:44:17;6.30;99.90
24686;DHT22;12804;51.176;4.452;2024-03-06T03:46:45;6.30;99.90
24686;DHT22;12804;51.176;4.452;2024-03-06T03:49:11;6.30;99.90
24686;DHT22;12804;51.176;4.452;2024-03-06T03:51:40;6.20;99.90
24686;DHT22;12804;51.176;4.452;2024-03-06T03:54:06;6.10;99.90
24686;DHT22;12804;51.176;4.452;2024-03-06T03:56:33;6.00;99.90
24686;DHT22;12804;51.176;4.452;2024-03-06T03:58:59;5.90;99.90
24686;DHT22;12804;51.176;4.452;2024-03-06T04:01:25;6.00;99.90
24686;DHT22;12804;51.176;4.452;2024-03-06T04:03:51;6.00;99.90
24686;DHT22;12804;51.176;4.452;2024-03-06T04:06:17;6.00;99.90
24686;DHT22;12804;51.176;4.452;2024-03-06T04:08:44;5.90;99.90
24686;DHT22;12804;51.176;4.452;2024-03-06T04:11:10;5.90;99.90
24686;DHT22;12804;51.176;4.452;2024-03-06T04:13:40;5.90;99.90
24686;DHT22;12804;51.176;4.452;2024-03-06T04:16:06;5.90;99.90
24686;DHT22;12804;51.176;4.452;2024-03-06T04:18:32;5.90;99.90
24686;DHT22;12804;51.176;4.452;2024-03-06T04:21:05;5.90;99.90
24686;DHT22;12804;51.176;4.452;2024-03-06T04:23:32;5.80;99.90
24686;DHT22;12804;51.176;4.452;2024-03-06T04:25:59;5.70;99.90
24686;DHT22;12804;51.176;4.452;2024-03-06T04:28:25;5.60;99.90
24686;DHT22;12804;51.176;4.452;2024-03-06T04:30:51;5.70;99.90
24686;DHT22;12804;51.176;4.452;2024-03-06T04:33:17;5.70;99.90
24686;DHT22;12804;51.176;4.452;2024-03-06T04:35:50;5.60;99.90
24686;DHT22;12804;51.176;4.452;2024-03-06T04:38:17;5.60;99.90
24686;DHT22;12804;51.176;4.452;2024-03-06T04:40:43;5.60;99.90
24686;DHT22;12804;51.176;4.452;2024-03-06T04:43:10;5.50;99.90
24686;DHT22;12804;51.176;4.452;2024-03-06T04:45:36;5.50;99.90
24686;DHT22;12804;51.176;4.452;2024-03-06T04:48:02;5.40;99.90
24686;DHT22;12804;51.176;4.452;2024-03-06T04:50:28;5.40;99.90
24686;DHT22;12804;51.176;4.452;2024-03-06T04:52:54;5.40;99.90
24686;DHT22;12804;51.176;4.452;2024-03-06T04:55:21;5.40;99.90
24686;DHT22;12804;51.176;4.452;2024-03-06T04:57:48;5.40;99.90
24686;DHT22;12804;51.176;4.452;2024-03-06T05:00:15;5.30;99.90
24686;DHT22;12804;51.176;4.452;2024-03-06T05:02:41;5.30;99.90
24686;DHT22;12804;51.176;4.452;2024-03-06T05:05:08;5.30;99.90
24686;DHT22;12804;51.176;4.452;2024-03-06T05:07:34;5.20;99.90
24686;DHT22;12804;51.176;4.452;2024-03-06T05:10:00;5.20;99.90
24686;DHT22;12804;51.176;4.452;2024-03-06T05:12:26;5.20;99.90
24686;DHT22;12804;51.176;4.452;2024-03-06T05:14:53;5.10;99.90
24686;DHT22;12804;51.176;4.452;2024-03-06T05:17:19;5.10;99.90
24686;DHT22;12804;51.176;4.452;2024-03-06T05:19:49;5.10;99.90
24686;DHT22;12804;51.176;4.452;2024-03-06T05:22:15;5.10;99.90
24686;DHT22;12804;51.176;4.452;2024-03-06T05:24:42;5.10;99.90
24686;DHT22;12804;51.176;4.452;2024-03-06T05:27:08;5.10;99.90
24686;DHT22;12804;51.176;4.452;2024-03-06T05:29:45;5.00;99.90
24686;DHT22;12804;51.176;4.452;2024-03-06T05:32:11;5.00;99.90
24686;DHT22;12804;51.176;4.452;2024-03-06T05:34:37;5.10;99.90
24686;DHT22;12804;51.176;4.452;2024-03-06T05:37:03;5.00;99.90
24686;DHT22;12804;51.176;4.452;2024-03-06T05:39:33;5.00;99.90
24686;DHT22;12804;51.176;4.452;2024-03-06T05:42:05;4.90;99.90
24686;DHT22;12804;51.176;4.452;2024-03-06T05:44:32;5.00;99.90
24686;DHT22;12804;51.176;4.452;2024-03-06T05:46:59;5.00;99.90
24686;DHT22;12804;51.176;4.452;2024-03-06T05:49:25;4.90;99.90
24686;DHT22;12804;51.176;4.452;2024-03-06T05:51:51;5.00;99.90
24686;DHT22;12804;51.176;4.452;2024-03-06T05:54:18;5.00;99.90
24686;DHT22;12804;51.176;4.452;2024-03-06T05:56:44;5.10;99.90
24686;DHT22;12804;51.176;4.452;2024-03-06T05:59:10;5.00;99.90
24686;DHT22;12804;51.176;4.452;2024-03-06T06:01:36;5.00;99.90
24686;DHT22;12804;51.176;4.452;2024-03-06T06:04:05;5.00;99.90
24686;DHT22;12804;51.176;4.452;2024-03-06T06:06:31;5.00;99.90
24686;DHT22;12804;51.176;4.452;2024-03-06T06:08:57;5.00;99.90
24686;DHT22;12804;51.176;4.452;2024-03-06T06:11:23;5.10;99.90
24686;DHT22;12804;51.176;4.452;2024-03-06T06:13:48;5.20;99.90
24686;DHT22;12804;51.176;4.452;2024-03-06T06:16:14;5.30;99.90
24686;DHT22;12804;51.176;4.452;2024-03-06T06:18:40;5.30;99.90
24686;DHT22;12804;51.176;4.452;2024-03-06T06:21:07;5.30;99.90
24686;DHT22;12804;51.176;4.452;2024-03-06T06:23:34;5.40;99.90
24686;DHT22;12804;51.176;4.452;2024-03-06T06:26:00;5.40;99.90
24686;DHT22;12804;51.176;4.452;2024-03-06T06:28:26;5.40;99.90
24686;DHT22;12804;51.176;4.452;2024-03-06T06:30:52;5.40;99.90
24686;DHT22;12804;51.176;4.452;2024-03-06T06:33:20;5.50;99.90
24686;DHT22;12804;51.176;4.452;2024-03-06T06:35:47;5.40;99.90
24686;DHT22;12804;51.176;4.452;2024-03-06T06:38:13;5.40;99.90
24686;DHT22;12804;51.176;4.452;2024-03-06T06:40:39;5.40;99.90
24686;DHT22;12804;51.176;4.452;2024-03-06T06:43:06;5.50;99.90
24686;DHT22;12804;51.176;4.452;2024-03-06T06:45:33;5.60;99.90
24686;DHT22;12804;51.176;4.452;2024-03-06T06:47:58;5.70;99.90
24686;DHT22;12804;51.176;4.452;2024-03-06T06:50:24;5.80;99.90
24686;DHT22;12804;51.176;4.452;2024-03-06T06:52:52;5.90;99.90
24686;DHT22;12804;51.176;4.452;2024-03-06T06:55:18;5.70;99.90
24686;DHT22;12804;51.176;4.452;2024-03-06T06:57:49;5.70;99.90
24686;DHT22;12804;51.176;4.452;2024-03-06T07:00:15;5.80;99.90
24686;DHT22;12804;51.176;4.452;2024-03-06T07:02:44;6.50;99.90
24686;DHT22;12804;51.176;4.452;2024-03-06T07:05:11;6.40;99.90
24686;DHT22;12804;51.176;4.452;2024-03-06T07:07:37;6.40;99.90
24686;DHT22;12804;51.176;4.452;2024-03-06T07:10:04;6.40;99.90
24686;DHT22;12804;51.176;4.452;2024-03-06T07:12:30;6.50;99.90
24686;DHT22;12804;51.176;4.452;2024-03-06T07:14:57;6.60;99.90
24686;DHT22;12804;51.176;4.452;2024-03-06T07:17:23;6.60;99.90
24686;DHT22;12804;51.176;4.452;2024-03-06T07:19:49;6.60;99.90
24686;DHT22;12804;51.176;4.452;2024-03-06T07:22:15;6.60;99.90
24686;DHT22;12804;51.176;4.452;2024-03-06T07:24:41;8.00;99.90
24686;DHT22;12804;51.176;4.452;2024-03-06T07:27:08;7.70;99.90
24686;DHT22;12804;51.176;4.452;2024-03-06T07:29:35;7.40;99.90
24686;DHT22;12804;51.176;4.452;2024-03-06T07:32:01;7.10;99.90
24686;DHT22;12804;51.176;4.452;2024-03-06T07:34:27;7.10;99.90
24686;DHT22;12804;51.176;4.452;2024-03-06T07:36:53;7.20;99.90
24686;DHT22;12804;51.176;4.452;2024-03-06T07:39:21;7.20;99.90
24686;DHT22;12804;51.176;4.452;2024-03-06T07:41:47;7.20;99.90
24686;DHT22;12804;51.176;4.452;2024-03-06T07:44:13;7.30;99.90
24686;DHT22;12804;51.176;4.452;2024-03-06T07:46:39;7.30;99.90
24686;DHT22;12804;51.176;4.452;2024-03-06T07:49:05;7.40;99.90
24686;DHT22;12804;51.176;4.452;2024-03-06T07:51:31;7.40;99.90
24686;DHT22;12804;51.176;4.452;2024-03-06T07:53:58;7.50;99.90
24686;DHT22;12804;51.176;4.452;2024-03-06T07:56:27;7.60;99.90
24686;DHT22;12804;51.176;4.452;2024-03-06T07:58:53;7.60;99.90
24686;DHT22;12804;51.176;4.452;2024-03-06T08:01:20;7.70;99.90
24686;DHT22;12804;51.176;4.452;2024-03-06T08:03:47;7.60;99.90
24686;DHT22;12804;51.176;4.452;2024-03-06T08:06:12;7.80;99.90
24686;DHT22;12804;51.176;4.452;2024-03-06T08:08:42;7.70;99.90
24686;DHT22;12804;51.176;4.452;2024-03-06T08:11:13;7.90;99.90
24686;DHT22;12804;51.176;4.452;2024-03-06T08:13:39;8.00;99.90
24686;DHT22;12804;51.176;4.452;2024-03-06T08:16:06;8.20;99.90
24686;DHT22;12804;51.176;4.452;2024-03-06T08:18:34;8.30;99.90
24686;DHT22;12804;51.176;4.452;2024-03-06T08:21:01;8.30;99.90
24686;DHT22;12804;51.176;4.452;2024-03-06T08:23:27;8.00;99.90
24686;DHT22;12804;51.176;4.452;2024-03-06T08:25:53;7.90;99.90
24686;DHT22;12804;51.176;4.452;2024-03-06T08:28:19;7.90;99.90
24686;DHT22;12804;51.176;4.452;2024-03-06T08:30:45;7.90;99.90
24686;DHT22;12804;51.176;4.452;2024-03-06T08:33:11;7.90;99.90
24686;DHT22;12804;51.176;4.452;2024-03-06T08:35:37;8.00;99.90
24686;DHT22;12804;51.176;4.452;2024-03-06T08:38:03;8.00;99.90
24686;DHT22;12804;51.176;4.452;2024-03-06T08:40:29;8.00;99.90
24686;DHT22;12804;51.176;4.452;2024-03-06T08:42:55;8.00;99.90
24686;DHT22;12804;51.176;4.452;2024-03-06T08:45:22;8.10;99.90
24686;DHT22;12804;51.176;4.452;2024-03-06T08:47:49;8.20;99.90
24686;DHT22;12804;51.176;4.452;2024-03-06T08:50:15;8.30;99.90
24686;DHT22;12804;51.176;4.452;2024-03-06T08:52:41;8.30;99.90
24686;DHT22;12804;51.176;4.452;2024-03-06T08:55:08;8.30;99.90
24686;DHT22;12804;51.176;4.452;2024-03-06T08:57:35;8.50;99.90
24686;DHT22;12804;51.176;4.452;2024-03-06T09:00:02;8.70;99.90
24686;DHT22;12804;51.176;4.452;2024-03-06T09:02:28;8.60;99.90
24686;DHT22;12804;51.176;4.452;2024-03-06T09:04:54;8.40;99.90
24686;DHT22;12804;51.176;4.452;2024-03-06T09:07:20;8.30;99.90
24686;DHT22;12804;51.176;4.452;2024-03-06T09:09:49;8.40;99.90
24686;DHT22;12804;51.176;4.452;2024-03-06T09:12:16;8.60;99.90
24686;DHT22;12804;51.176;4.452;2024-03-06T09:14:41;8.60;99.90
24686;DHT22;12804;51.176;4.452;2024-03-06T09:17:07;8.50;99.90
24686;DHT22;12804;51.176;4.452;2024-03-06T09:19:38;8.50;99.90
24686;DHT22;12804;51.176;4.452;2024-03-06T09:22:04;8.60;99.90
24686;DHT22;12804;51.176;4.452;2024-03-06T09:24:30;8.70;99.90
24686;DHT22;12804;51.176;4.452;2024-03-06T09:26:56;8.80;99.90
24686;DHT22;12804;51.176;4.452;2024-03-06T09:29:22;8.80;99.90
24686;DHT22;12804;51.176;4.452;2024-03-06T09:31:48;8.70;99.90
24686;DHT22;12804;51.176;4.452;2024-03-06T09:34:14;8.60;99.90
24686;DHT22;12804;51.176;4.452;2024-03-06T09:36:41;8.70;99.90
24686;DHT22;12804;51.176;4.452;2024-03-06T09:39:18;8.70;99.90
24686;DHT22;12804;51.176;4.452;2024-03-06T09:41:53;8.90;99.90
24686;DHT22;12804;51.176;4.452;2024-03-06T09:44:20;9.10;99.90
24686;DHT22;12804;51.176;4.452;2024-03-06T09:46:47;9.20;99.90
24686;DHT22;12804;51.176;4.452;2024-03-06T09:49:23;9.30;99.90
24686;DHT22;12804;51.176;4.452;2024-03-06T09:51:49;9.40;99.90
24686;DHT22;12804;51.176;4.452;2024-03-06T09:54:25;9.30;99.90
24686;DHT22;12804;51.176;4.452;2024-03-06T09:56:52;9.30;99.90
24686;DHT22;12804;51.176;4.452;2024-03-06T09:59:20;9.30;99.90
24686;DHT22;12804;51.176;4.452;2024-03-06T10:04:22;9.60;99.90
24686;DHT22;12804;51.176;4.452;2024-03-06T10:06:52;9.60;99.90
24686;DHT22;12804;51.176;4.452;2024-03-06T10:09:21;9.70;99.90
24686;DHT22;12804;51.176;4.452;2024-03-06T10:11:47;9.60;99.90
24686;DHT22;12804;51.176;4.452;2024-03-06T10:14:14;9.80;99.90
24686;DHT22;12804;51.176;4.452;2024-03-06T10:16:57;9.90;99.90
24686;DHT22;12804;51.176;4.452;2024-03-06T10:19:24;9.80;99.90
24686;DHT22;12804;51.176;4.452;2024-03-06T10:21:51;10.00;99.90
24686;DHT22;12804;51.176;4.452;2024-03-06T10:24:21;10.00;99.70
24686;DHT22;12804;51.176;4.452;2024-03-06T10:26:50;10.00;92.40
24686;DHT22;12804;51.176;4.452;2024-03-06T10:29:20;10.10;60.80
24686;DHT22;12804;51.176;4.452;2024-03-06T10:31:53;10.40;38.90
24686;DHT22;12804;51.176;4.452;2024-03-06T10:34:29;10.90;32.60
24686;DHT22;12804;51.176;4.452;2024-03-06T10:36:59;11.90;1.00
24686;DHT22;12804;51.176;4.452;2024-03-06T10:39:25;13.30;1.00
24686;DHT22;12804;51.176;4.452;2024-03-06T10:41:53;12.40;1.00
24686;DHT22;12804;51.176;4.452;2024-03-06T10:44:24;12.60;1.00
24686;DHT22;12804;51.176;4.452;2024-03-06T10:47:09;13.30;1.00
24686;DHT22;12804;51.176;4.452;2024-03-06T10:49:35;13.00;1.00
24686;DHT22;12804;51.176;4.452;2024-03-06T10:52:04;12.50;1.00
24686;DHT22;12804;51.176;4.452;2024-03-06T10:54:34;12.20;1.00
24686;DHT22;12804;51.176;4.452;2024-03-06T10:57:08;12.10;1.00
24686;DHT22;12804;51.176;4.452;2024-03-06T10:59:35;12.90;1.00
24686;DHT22;12804;51.176;4.452;2024-03-06T11:02:02;14.10;1.00
24686;DHT22;12804;51.176;4.452;2024-03-06T11:04:29;14.50;99.90
24686;DHT22;12804;51.176;4.452;2024-03-06T11:06:59;14.80;99.90
24686;DHT22;12804;51.176;4.452;2024-03-06T11:09:35;15.60;99.90
24686;DHT22;12804;51.176;4.452;2024-03-06T11:12:02;15.80;1.00
24686;DHT22;12804;51.176;4.452;2024-03-06T11:14:31;16.00;99.90
24686;DHT22;12804;51.176;4.452;2024-03-06T11:17:07;17.10;1.00
24686;DHT22;12804;51.176;4.452;2024-03-06T11:28:23;15.90;99.90
24686;DHT22;12804;51.176;4.452;2024-03-06T11:30:55;17.40;1.00
24686;DHT22;12804;51.176;4.452;2024-03-06T11:33:27;19.40;1.00
24686;DHT22;12804;51.176;4.452;2024-03-06T11:41:23;21.40;1.00
24686;DHT22;12804;51.176;4.452;2024-03-06T11:43:51;20.80;1.00
24686;DHT22;12804;51.176;4.452;2024-03-06T11:46:19;22.20;1.00
24686;DHT22;12804;51.176;4.452;2024-03-06T11:48:55;21.50;1.00
24686;DHT22;12804;51.176;4.452;2024-03-06T11:51:24;21.70;1.00
24686;DHT22;12804;51.176;4.452;2024-03-06T11:53:52;20.80;1.00
24686;DHT22;12804;51.176;4.452;2024-03-06T11:56:19;19.70;1.00
24686;DHT22;12804;51.176;4.452;2024-03-06T11:58:46;19.50;1.00
24686;DHT22;12804;51.176;4.452;2024-03-06T12:01:13;18.80;1.00
24686;DHT22;12804;51.176;4.452;2024-03-06T12:03:40;16.80;99.90
24686;DHT22;12804;51.176;4.452;2024-03-06T12:06:06;16.20;99.90
24686;DHT22;12804;51.176;4.452;2024-03-06T12:08:33;15.60;99.90
24686;DHT22;12804;51.176;4.452;2024-03-06T12:11:04;15.90;54.70
24686;DHT22;12804;51.176;4.452;2024-03-06T12:13:31;15.60;1.00
24686;DHT22;12804;51.176;4.452;2024-03-06T12:15:57;16.20;1.00
24686;DHT22;12804;51.176;4.452;2024-03-06T12:18:24;17.00;6.90
24686;DHT22;12804;51.176;4.452;2024-03-06T12:20:50;17.50;99.90
24686;DHT22;12804;51.176;4.452;2024-03-06T12:23:23;18.20;1.00
24686;DHT22;12804;51.176;4.452;2024-03-06T12:26:10;16.40;1.00
24686;DHT22;12804;51.176;4.452;2024-03-06T12:28:37;14.60;1.00
24686;DHT22;12804;51.176;4.452;2024-03-06T12:31:04;14.50;1.00
24686;DHT22;12804;51.176;4.452;2024-03-06T12:33:31;15.20;99.90
24686;DHT22;12804;51.176;4.452;2024-03-06T12:36:02;15.70;1.00
24686;DHT22;12804;51.176;4.452;2024-03-06T12:38:29;14.60;99.90
24686;DHT22;12804;51.176;4.452;2024-03-06T12:40:55;14.00;1.00
24686;DHT22;12804;51.176;4.452;2024-03-06T12:43:21;13.60;1.00
24686;DHT22;12804;51.176;4.452;2024-03-06T12:45:46;13.70;99.90
24686;DHT22;12804;51.176;4.452;2024-03-06T12:48:12;14.00;1.00
24686;DHT22;12804;51.176;4.452;2024-03-06T12:50:38;14.10;1.00
24686;DHT22;12804;51.176;4.452;2024-03-06T12:53:05;13.80;99.90
24686;DHT22;12804;51.176;4.452;2024-03-06T12:55:31;14.00;1.00
24686;DHT22;12804;51.176;4.452;2024-03-06T12:57:57;14.40;99.90
24686;DHT22;12804;51.176;4.452;2024-03-06T13:00:23;14.50;99.90
24686;DHT22;12804;51.176;4.452;2024-03-06T13:02:50;15.00;1.00
24686;DHT22;12804;51.176;4.452;2024-03-06T13:05:18;15.50;99.90
24686;DHT22;12804;51.176;4.452;2024-03-06T13:07:45;15.70;99.90
24686;DHT22;12804;51.176;4.452;2024-03-06T13:10:12;16.00;1.00
24686;DHT22;12804;51.176;4.452;2024-03-06T13:12:38;16.10;1.00
24686;DHT22;12804;51.176;4.452;2024-03-06T13:15:05;16.30;1.00
24686;DHT22;12804;51.176;4.452;2024-03-06T13:17:33;16.40;1.00
24686;DHT22;12804;51.176;4.452;2024-03-06T13:19:59;16.40;1.00
24686;DHT22;12804;51.176;4.452;2024-03-06T13:22:25;16.30;1.00
24686;DHT22;12804;51.176;4.452;2024-03-06T13:24:51;16.00;1.00
24686;DHT22;12804;51.176;4.452;2024-03-06T13:27:17;15.70;1.00
24686;DHT22;12804;51.176;4.452;2024-03-06T13:29:43;15.70;38.40
24686;DHT22;12804;51.176;4.452;2024-03-06T13:32:09;15.30;99.90
24686;DHT22;12804;51.176;4.452;2024-03-06T13:34:35;14.90;1.00
24686;DHT22;12804;51.176;4.452;2024-03-06T13:37:00;14.80;99.90
24686;DHT22;12804;51.176;4.452;2024-03-06T13:39:26;15.20;99.90
24686;DHT22;12804;51.176;4.452;2024-03-06T13:41:52;15.40;1.00
24686;DHT22;12804;51.176;4.452;2024-03-06T13:44:18;15.70;99.90
24686;DHT22;12804;51.176;4.452;2024-03-06T13:46:44;16.00;1.00
24686;DHT22;12804;51.176;4.452;2024-03-06T13:52:01;18.20;1.00
24686;DHT22;12804;51.176;4.452;2024-03-06T13:54:27;18.90;99.90
24686;DHT22;12804;51.176;4.452;2024-03-06T13:56:53;19.70;1.00
24686;DHT22;12804;51.176;4.452;2024-03-06T13:59:32;20.30;1.00
24686;DHT22;12804;51.176;4.452;2024-03-06T14:01:58;21.20;1.00
24686;DHT22;12804;51.176;4.452;2024-03-06T14:04:28;20.10;1.00
24686;DHT22;12804;51.176;4.452;2024-03-06T14:06:55;19.00;1.00
24686;DHT22;12804;51.176;4.452;2024-03-06T14:09:23;19.30;1.00
24686;DHT22;12804;51.176;4.452;2024-03-06T14:11:52;19.30;1.00
24686;DHT22;12804;51.176;4.452;2024-03-06T14:14:19;18.20;1.00
24686;DHT22;12804;51.176;4.452;2024-03-06T14:16:45;17.30;1.00
24686;DHT22;12804;51.176;4.452;2024-03-06T14:19:12;17.30;1.00
24686;DHT22;12804;51.176;4.452;2024-03-06T14:21:38;16.60;1.00
24686;DHT22;12804;51.176;4.452;2024-03-06T14:24:04;17.30;1.00
24686;DHT22;12804;51.176;4.452;2024-03-06T14:26:33;17.60;1.00
24686;DHT22;12804;51.176;4.452;2024-03-06T14:29:00;17.10;1.00
24686;DHT22;12804;51.176;4.452;2024-03-06T14:31:27;17.10;1.00
24686;DHT22;12804;51.176;4.452;2024-03-06T14:33:53;17.70;1.00
24686;DHT22;12804;51.176;4.452;2024-03-06T14:36:19;17.60;1.00
24686;DHT22;12804;51.176;4.452;2024-03-06T14:38:47;16.40;1.00
24686;DHT22;12804;51.176;4.452;2024-03-06T14:41:13;16.30;99.90
24686;DHT22;12804;51.176;4.452;2024-03-06T14:43:39;16.40;1.00
24686;DHT22;12804;51.176;4.452;2024-03-06T14:46:05;16.50;99.90
24686;DHT22;12804;51.176;4.452;2024-03-06T14:48:32;16.60;99.90
24686;DHT22;12804;51.176;4.452;2024-03-06T14:51:00;16.40;1.00
24686;DHT22;12804;51.176;4.452;2024-03-06T14:53:26;16.20;1.00
24686;DHT22;12804;51.176;4.452;2024-03-06T14:55:52;15.90;1.00
24686;DHT22;12804;51.176;4.452;2024-03-06T14:58:18;15.60;33.50
24686;DHT22;12804;51.176;4.452;2024-03-06T15:00:44;15.50;76.60
24686;DHT22;12804;51.176;4.452;2024-03-06T15:03:10;15.30;99.90
24686;DHT22;12804;51.176;4.452;2024-03-06T15:05:36;15.20;99.90
24686;DHT22;12804;51.176;4.452;2024-03-06T15:08:02;15.20;99.90
24686;DHT22;12804;51.176;4.452;2024-03-06T15:10:30;15.20;99.90
24686;DHT22;12804;51.176;4.452;2024-03-06T15:12:58;15.10;99.90
24686;DHT22;12804;51.176;4.452;2024-03-06T15:15:24;14.80;1.00
24686;DHT22;12804;51.176;4.452;2024-03-06T15:17:50;14.80;99.90
24686;DHT22;12804;51.176;4.452;2024-03-06T15:20:16;14.90;99.90
24686;DHT22;12804;51.176;4.452;2024-03-06T15:22:43;15.10;1.00
24686;DHT22;12804;51.176;4.452;2024-03-06T15:25:13;15.10;1.00
24686;DHT22;12804;51.176;4.452;2024-03-06T15:27:39;15.00;1.00
24686;DHT22;12804;51.176;4.452;2024-03-06T15:30:07;14.80;1.00
24686;DHT22;12804;51.176;4.452;2024-03-06T15:32:34;14.70;1.00
24686;DHT22;12804;51.176;4.452;2024-03-06T15:35:00;14.60;1.00
24686;DHT22;12804;51.176;4.452;2024-03-06T15:37:26;14.60;92.90
24686;DHT22;12804;51.176;4.452;2024-03-06T15:39:52;14.60;1.00
24686;DHT22;12804;51.176;4.452;2024-03-06T15:42:22;14.50;1.00
24686;DHT22;12804;51.176;4.452;2024-03-06T15:44:49;14.50;1.00
24686;DHT22;12804;51.176;4.452;2024-03-06T15:47:17;14.50;1.00
24686;DHT22;12804;51.176;4.452;2024-03-06T15:49:43;14.40;99.90
24686;DHT22;12804;51.176;4.452;2024-03-06T15:52:12;14.00;1.00
24686;DHT22;12804;51.176;4.452;2024-03-06T15:54:39;13.90;94.10
24686;DHT22;12804;51.176;4.452;2024-03-06T15:57:05;14.20;99.90
24686;DHT22;12804;51.176;4.452;2024-03-06T15:59:33;14.50;99.90
24686;DHT22;12804;51.176;4.452;2024-03-06T16:01:59;14.70;99.90
24686;DHT22;12804;51.176;4.452;2024-03-06T16:04:25;14.70;1.00